Nearby METAR Reports

 

KLEX - Lexington, Kentucky, USA
Distance from station: WNW 7mi, 11km
Updated: Fri, 19-Jan-2018 3:54pm EST
Clear
Clear
 Wind from S
Wind: S 14 mph , 22 km/h
Temperature: 39°F , 4°C
Wind Chill: 31°F , -1°C
Dew Point: 19°F , -7°C
Humidity: 45%
Barometer: 30.11 inHg , 1019.6 hPa
Clouds: Clear
Visibility: 10 miles , 16 km
2018/01/19 20:54 KLEX 192054Z 19012KT 10SM CLR 04/M07 A3011 RMK AO2 SLP205 T00391072 56020
KFFT - Frankfort, Kentucky, USA
Distance from station: WNW 26mi, 42km
Updated: Fri, 19-Jan-2018 3:53pm EST
Clear
Clear
 Wind from SSW
Wind: SSW 9 mph , 15 km/h
Temperature: 39°F , 4°C
Wind Chill: 33°F , 1°C
Dew Point: 18°F , -8°C
Humidity: 42%
Barometer: 30.09 inHg , 1019 hPa
Clouds: Clear
Visibility: 10 miles , 16 km
2018/01/19 20:53 KFFT 192053Z AUTO 20008KT 10SM CLR 04/M08 A3009 RMK AO2 SLP198 T00441078 56020
 
KIOB - Mount Sterling, Kentucky, USA
Distance from station: E 27mi, 44km
Updated: Fri, 19-Jan-2018 3:55pm EST
Clear
Clear
 Wind from WSW
Wind: WSW 14 mph , 22 km/h
Temperature: 41°F , 5°C
Wind Chill: 33°F , 1°C
Dew Point: 19°F , -7°C
Humidity: 42%
Barometer: 30.13 inHg , 1020.3 hPa
Clouds: Clear
Visibility: 10 miles , 16 km
2018/01/19 20:55 KIOB 192055Z AUTO 25012KT 10SM CLR 05/M07 A3013 RMK AO2 P0003
KDVK - Danville, Kentucky, USA
Distance from station: SSW 33mi, 53km
Updated: Fri, 19-Jan-2018 3:55pm EST
Clear
Clear
 Wind from SSW
Wind: SSW 10 mph , 17 km/h
Temperature: 37°F , 3°C
Wind Chill: 30°F , -1°C
Dew Point: 18°F , -8°C
Humidity: 45%
Barometer: 30.15 inHg , 1021 hPa
Clouds: Clear
Visibility: 10 miles , 16 km
2018/01/19 20:55 KDVK 192055Z AUTO 21009KT 10SM CLR 03/M08 A3015 RMK AO2